Decoded Metar for PASD (SAND POINT in AK, USA) (IATA:SDP) | Meteo·Mobile Aviation Weather
aviador You're here:

PASD Decoded Metar

SAND POINT in AK, USA
Report Time2018-12-16 14:56:00
UTC Time2018-12-16 15:44:43
Flight Rules vfr VFR
Wind340° at 23 Gusting to 32 kt
W.Decomp.*RWY 31: 22.2 kt HW 6.0 kt RCW
W.Rank340° ranks 1
Current wind is above 340° avg. (13.2)
Visibility9999 m
Phenomena:N/A
Clouds:Scattered 029 Hf
Expected CloudBase > 1,600 ft AGL from Temp-Dew spread
CeilingNone
Temp-4°C (ISA -19)
Dew Point-8°C (74% RH)
AAT-15.2°C
QNH989 hPa
Density Alt-1,437 ft
Elevation23 ft
Report Wrong Elevation
Raw Report
PASD 161456Z AUTO 34023G32KT 10SM SCT029 M04/M08 A2920 RMK AO2 PK
WND 34033/1427 SNB32E50 SLP889 6//// T10441083 58019 FZRANO
PNO $=

Extra information for PASD:More info

Metar Taf Metar & Taf Last 4 Metars F.Rules Stats Wind Profile Meteogram Temp Stats Airport Information Weather charts Add Link Nearby VenuesMetar ALERT Operation Metar Decoded Social comments

AIRNAV info for PASD